Terminal Aerodrome Forecast
Issued by NWS

Home | Current Version | Previous Version | Text Only | Print | Product List | Glossary Off
Versions: 1 2 3 4 5 6 7 8 9 10 11 12 13 14 15

253
FTUS43 KICT 161949 AAA
TAFRSL
TAF AMD
KRSL 161949Z 1620/1718 11012KT P6SM SKC
     FM170300 09005KT P6SM SCT250
     FM171400 12007KT P6SM SCT250=

USA.gov is the U.S. government's official web portal to all federal, state and local government web resources and services.